Terminal Aerodrome Forecast
Issued by NWS

Home | Current Version | Previous Version | Text Only | Print | Product List | Glossary On
Versions: 1 2 3 4 5 6 7 8 9 10 11 12 13 14 15 16 17 18 19 20 21 22 23 24 25 26 27 28 29 30
000
FTPA31 PHFO 060500
TAFOGG
TAF
PHOG 060538Z 0606/0706 01010KT P6SM VCSH SCT020 BKN040
      TEMPO 0606/0610 01010G20KT 5SM -RA BR
     FM062000 03018KT P6SM SCT030 SCT045 BKN200
      AMD LTD TO WX VIS AND WIND 0609/0616=

USA.gov is the U.S. government's official web portal to all federal, state and local government web resources and services.